Time;durP1;ratioP1;P1;durP2;ratioP2;P2;SDS_P1;SDS_P2;PMS_P1;PMS_P2;Temp;Humidity;BMP_temperature;BMP_pressure;BME280_temperature;BME280_humidity;BME280_pressure;Samples;Min_cycle;Max_cycle;Signal;HPM_P1;HPM_P2
2022/10/02 00:00:50;;;;;;;;;7.00;7.00;;;;;;;;5077104;28;45166;-78
2022/10/02 00:03:24;;;;;;;;;6.00;6.00;;;;;;;;5076334;28;45302;-78
2022/10/02 00:05:58;;;;;;;;;7.00;7.00;;;;;;;;5076466;28;45388;-77
2022/10/02 00:08:31;;;;;;;;;4.50;4.50;;;;;;;;5076174;28;45703;-77
2022/10/02 00:11:00;;;;;;;;;8.50;8.50;;;;;;;;5075610;28;45346;-79
2022/10/02 00:13:30;;;;;;;;;8.00;8.00;;;;;;;;5075770;28;45604;-80
2022/10/02 00:15:55;;;;;;;;;11.75;11.75;;;;;;;;5075984;28;46373;-78
2022/10/02 00:18:23;;;;;;;;;7.00;7.00;;;;;;;;5074948;28;45405;-78
2022/10/02 00:20:54;;;;;;;;;5.00;5.00;;;;;;;;5057687;27;45182;-79
2022/10/02 00:23:19;;;;;;;;;5.00;5.00;;;;;;;;5077850;28;45414;-78
2022/10/02 00:25:59;;;;;;;;;7.50;7.50;;;;;;;;5063212;28;48322;-79
2022/10/02 00:28:27;;;;;;;;;7.75;7.75;;;;;;;;5086952;28;46191;-77
2022/10/02 00:31:11;;;;;;;;;6.50;6.50;;;;;;;;5073275;28;45385;-78
2022/10/02 00:33:51;;;;;;;;;6.25;6.25;;;;;;;;5084000;28;45708;-79
2022/10/02 00:36:19;;;;;;;;;6.75;6.75;;;;;;;;5079026;28;45463;-78
2022/10/02 00:38:59;;;;;;;;;5.00;5.00;;;;;;;;5079716;28;45226;-78
2022/10/02 00:41:39;;;;;;;;;5.75;5.75;;;;;;;;5080145;28;45411;-78
2022/10/02 00:44:25;;;;;;;;;8.00;8.00;;;;;;;;5063080;28;45251;-79
2022/10/02 00:46:59;;;;;;;;;6.00;6.00;;;;;;;;5080297;28;46203;-79
2022/10/02 00:49:33;;;;;;;;;5.75;5.00;;;;;;;;5062201;28;45193;-78
2022/10/02 00:52:07;;;;;;;;;5.00;5.00;;;;;;;;5078731;28;45192;-78
2022/10/02 00:54:51;;;;;;;;;4.75;4.75;;;;;;;;5079332;28;45255;-78
2022/10/02 00:57:28;;;;;;;;;5.00;5.00;;;;;;;;5078187;28;45515;-77
2022/10/02 01:00:06;;;;;;;;;6.00;6.00;;;;;;;;5078116;28;45202;-78
2022/10/02 01:02:49;;;;;;;;;4.50;4.50;;;;;;;;5077587;28;45156;-78
2022/10/02 01:05:14;;;;;;;;;7.00;7.00;;;;;;;;5059599;28;45321;-77
2022/10/02 01:07:41;;;;;;;;;4.50;4.50;;;;;;;;5058961;28;46998;-78
2022/10/02 01:10:07;;;;;;;;;3.75;3.75;;;;;;;;5077914;28;45205;-78
2022/10/02 01:12:33;;;;;;;;;5.25;5.25;;;;;;;;5078237;28;45347;-77
2022/10/02 01:14:58;;;;;;;;;6.00;6.00;;;;;;;;5059654;28;45409;-78
2022/10/02 01:17:28;;;;;;;;;4.25;4.25;;;;;;;;5078221;28;45366;-77
2022/10/02 01:19:54;;;;;;;;;4.50;4.50;;;;;;;;5078308;27;45157;-78
2022/10/02 01:22:45;;;;;;;;;3.75;3.75;;;;;;;;5059743;28;45435;-80
2022/10/02 01:25:10;;;;;;;;;3.00;3.00;;;;;;;;5080184;27;45522;-78
2022/10/02 01:27:36;;;;;;;;;5.50;5.50;;;;;;;;5062023;28;47485;-78
2022/10/02 01:30:01;;;;;;;;;4.00;4.00;;;;;;;;5060931;28;45357;-78
2022/10/02 01:32:30;;;;;;;;;4.75;4.75;;;;;;;;5078322;28;45500;-79
2022/10/02 01:34:56;;;;;;;;;5.00;5.00;;;;;;;;5059560;28;45313;-77
2022/10/02 01:37:24;;;;;;;;;4.00;4.00;;;;;;;;5081579;28;46357;-77
2022/10/02 01:39:50;;;;;;;;;3.00;3.00;;;;;;;;5061360;28;45333;-78
2022/10/02 01:42:16;;;;;;;;;2.50;2.50;;;;;;;;5080642;28;45400;-78
2022/10/02 01:44:42;;;;;;;;;4.00;4.00;;;;;;;;5082797;28;45528;-78
2022/10/02 01:47:26;;;;;;;;;4.25;4.25;;;;;;;;5067524;28;47284;-77
2022/10/02 01:49:57;;;;;;;;;4.50;4.50;;;;;;;;5086399;28;45416;-78
2022/10/02 01:52:32;;;;;;;;;4.00;4.00;;;;;;;;5083053;28;45433;-77
2022/10/02 01:55:16;;;;;;;;;3.50;3.50;;;;;;;;5079357;28;45379;-79
2022/10/02 01:57:42;;;;;;;;;2.75;2.75;;;;;;;;5078435;28;46278;-79
2022/10/02 02:00:18;;;;;;;;;3.75;3.75;;;;;;;;5078602;27;45585;-78
2022/10/02 02:02:50;;;;;;;;;4.50;4.50;;;;;;;;5077828;27;45370;-77
2022/10/02 02:05:21;;;;;;;;;3.25;3.25;;;;;;;;5078485;28;45448;-78
2022/10/02 02:07:46;;;;;;;;;4.00;4.00;;;;;;;;5059910;28;47039;-77
2022/10/02 02:10:17;;;;;;;;;4.00;4.00;;;;;;;;5077940;28;45467;-77
2022/10/02 02:12:44;;;;;;;;;5.00;5.00;;;;;;;;5078002;28;45600;-78
2022/10/02 02:15:15;;;;;;;;;4.25;4.25;;;;;;;;5060645;28;45372;-78
2022/10/02 02:17:46;;;;;;;;;3.00;3.00;;;;;;;;5080001;28;45429;-77
2022/10/02 02:20:17;;;;;;;;;4.50;4.50;;;;;;;;5077852;28;45458;-78
2022/10/02 02:22:45;;;;;;;;;2.00;2.00;;;;;;;;5077998;28;45337;-79
2022/10/02 02:25:13;;;;;;;;;3.25;3.25;;;;;;;;5079104;28;45325;-77
2022/10/02 02:27:41;;;;;;;;;2.75;2.75;;;;;;;;5077810;28;45592;-78
2022/10/02 02:30:10;;;;;;;;;4.75;4.75;;;;;;;;5077701;28;45198;-79
2022/10/02 02:32:38;;;;;;;;;7.25;7.00;;;;;;;;5077354;27;45392;-77
2022/10/02 02:35:07;;;;;;;;;4.00;4.00;;;;;;;;5077268;27;45233;-78
2022/10/02 02:37:34;;;;;;;;;2.00;1.25;;;;;;;;5077358;28;45254;-77
2022/10/02 02:40:02;;;;;;;;;3.00;3.00;;;;;;;;5078699;28;45442;-77
2022/10/02 02:42:30;;;;;;;;;4.75;4.75;;;;;;;;5080838;28;45320;-80
2022/10/02 02:45:02;;;;;;;;;3.25;3.25;;;;;;;;5079217;28;45315;-77
2022/10/02 02:47:47;;;;;;;;;5.00;5.00;;;;;;;;5077321;28;46543;-77
2022/10/02 02:50:22;;;;;;;;;4.00;4.00;;;;;;;;5067964;28;45435;-77
2022/10/02 02:52:57;;;;;;;;;5.25;4.75;;;;;;;;5079071;27;45356;-77
2022/10/02 02:55:27;;;;;;;;;4.50;4.50;;;;;;;;5079906;28;44787;-79
2022/10/02 02:58:25;;;;;;;;;8.50;7.50;;;;;;;;5077154;28;46570;-78
2022/10/02 03:00:50;;;;;;;;;3.75;3.75;;;;;;;;5044181;28;45425;-77
2022/10/02 03:03:16;;;;;;;;;6.75;6.25;;;;;;;;5080153;28;45277;-77
2022/10/02 03:05:45;;;;;;;;;6.00;6.00;;;;;;;;5081643;28;45384;-78
2022/10/02 03:08:30;;;;;;;;;4.75;4.75;;;;;;;;5064534;28;48559;-78
2022/10/02 03:11:05;;;;;;;;;5.75;5.75;;;;;;;;5063127;28;45384;-77
2022/10/02 03:13:43;;;;;;;;;4.25;4.25;;;;;;;;5083937;28;45211;-77
2022/10/02 03:16:20;;;;;;;;;5.00;5.00;;;;;;;;5064666;28;45487;-77
2022/10/02 03:18:56;;;;;;;;;3.00;3.00;;;;;;;;5078565;28;45727;-76
2022/10/02 03:21:31;;;;;;;;;4.75;4.75;;;;;;;;5060066;28;45479;-77
2022/10/02 03:24:02;;;;;;;;;4.75;4.75;;;;;;;;5078976;28;45449;-79
2022/10/02 03:26:40;;;;;;;;;8.25;7.25;;;;;;;;5080024;28;45171;-78
2022/10/02 03:29:09;;;;;;;;;14.25;14.00;;;;;;;;5076680;28;45422;-77
2022/10/02 03:31:35;;;;;;;;;4.25;4.25;;;;;;;;5076812;28;45367;-78
2022/10/02 03:34:01;;;;;;;;;5.25;5.25;;;;;;;;5077667;28;45870;-77
2022/10/02 03:36:26;;;;;;;;;8.00;8.00;;;;;;;;5078207;28;45268;-78
2022/10/02 03:38:53;;;;;;;;;6.00;6.00;;;;;;;;5078022;28;45395;-77
2022/10/02 03:41:19;;;;;;;;;4.00;4.00;;;;;;;;5078845;28;45409;-79
2022/10/02 03:43:44;;;;;;;;;6.50;6.50;;;;;;;;5064867;28;45454;-78
2022/10/02 03:46:10;;;;;;;;;3.75;3.75;;;;;;;;5086815;28;45401;-77
2022/10/02 03:48:35;;;;;;;;;3.75;3.75;;;;;;;;5079528;28;46239;-77
2022/10/02 03:51:00;;;;;;;;;5.00;5.00;;;;;;;;5078969;28;45621;-78
2022/10/02 03:53:28;;;;;;;;;4.00;4.00;;;;;;;;5059488;28;45405;-79
2022/10/02 03:56:00;;;;;;;;;3.25;3.25;;;;;;;;5077182;28;45468;-76
2022/10/02 03:58:25;;;;;;;;;4.00;4.00;;;;;;;;5081231;28;45556;-78
2022/10/02 04:01:01;;;;;;;;;4.00;4.00;;;;;;;;5083825;28;45360;-79
2022/10/02 04:03:29;;;;;;;;;4.25;4.25;;;;;;;;5063160;28;45371;-78
2022/10/02 04:06:18;;;;;;;;;3.00;3.00;;;;;;;;5079951;28;45232;-78
2022/10/02 04:08:50;;;;;;;;;2.00;2.00;;;;;;;;5071832;27;46207;-77
2022/10/02 04:11:42;;;;;;;;;2.00;2.00;;;;;;;;5079906;28;45272;-80
2022/10/02 04:14:29;;;;;;;;;2.50;2.50;;;;;;;;5076699;27;45556;-78
2022/10/02 04:16:57;;;;;;;;;2.00;2.00;;;;;;;;5080748;27;45339;-79
2022/10/02 04:19:25;;;;;;;;;1.00;1.00;;;;;;;;5081169;28;46011;-78
2022/10/02 04:22:07;;;;;;;;;1.00;1.00;;;;;;;;5080066;28;45472;-77
2022/10/02 04:24:37;;;;;;;;;1.50;1.50;;;;;;;;5079653;28;45336;-78
2022/10/02 04:27:06;;;;;;;;;1.50;1.50;;;;;;;;5062623;28;45494;-77
2022/10/02 04:29:37;;;;;;;;;1.00;1.00;;;;;;;;5080059;28;45267;-78
2022/10/02 04:32:10;;;;;;;;;1.00;1.00;;;;;;;;5079520;28;45329;-78
2022/10/02 04:34:36;;;;;;;;;2.00;2.00;;;;;;;;5061759;28;45331;-78
2022/10/02 04:37:10;;;;;;;;;0.00;0.00;;;;;;;;5079869;28;45410;-78
2022/10/02 04:39:38;;;;;;;;;0.50;0.25;;;;;;;;5080915;27;47587;-77
2022/10/02 04:42:19;;;;;;;;;0.00;0.00;;;;;;;;5079743;27;45437;-79
2022/10/02 04:44:44;;;;;;;;;1.00;1.00;;;;;;;;5079618;28;45449;-78
2022/10/02 04:47:19;;;;;;;;;1.00;1.00;;;;;;;;5080313;28;45283;-78
2022/10/02 04:49:47;;;;;;;;;0.75;0.75;;;;;;;;5079006;28;45796;-77
2022/10/02 04:52:18;;;;;;;;;0.00;0.00;;;;;;;;5079751;28;45389;-78
2022/10/02 04:54:43;;;;;;;;;0.00;0.00;;;;;;;;5081190;28;45295;-79
2022/10/02 04:57:08;;;;;;;;;0.00;0.00;;;;;;;;5080213;28;45552;-79
2022/10/02 04:59:33;;;;;;;;;0.75;0.75;;;;;;;;5079066;28;46399;-79
2022/10/02 05:02:07;;;;;;;;;0.00;0.00;;;;;;;;5079778;27;45341;-79
2022/10/02 05:04:45;;;;;;;;;0.00;0.00;;;;;;;;5079643;28;45493;-77
2022/10/02 05:07:19;;;;;;;;;0.00;0.00;;;;;;;;5080198;28;45582;-78
2022/10/02 05:09:53;;;;;;;;;0.00;0.00;;;;;;;;5060511;28;48000;-78
2022/10/02 05:12:33;;;;;;;;;0.00;0.00;;;;;;;;5064288;27;45352;-80
2022/10/02 05:15:02;;;;;;;;;0.00;0.00;;;;;;;;5083222;28;45311;-78
2022/10/02 05:17:27;;;;;;;;;0.00;0.00;;;;;;;;5087397;28;45167;-78
2022/10/02 05:20:11;;;;;;;;;0.00;0.00;;;;;;;;5085888;28;45402;-79
2022/10/02 05:22:43;;;;;;;;;0.00;0.00;;;;;;;;5083601;28;45429;-79
2022/10/02 05:25:12;;;;;;;;;0.00;0.00;;;;;;;;5079165;28;45403;-79
2022/10/02 05:28:06;;;;;;;;;0.00;0.00;;;;;;;;5079825;28;45633;-78
2022/10/02 05:30:53;;;;;;;;;0.00;0.00;;;;;;;;5079177;28;45304;-78
2022/10/02 05:33:19;;;;;;;;;0.00;0.00;;;;;;;;5079517;28;45439;-78
2022/10/02 05:35:48;;;;;;;;;0.00;0.00;;;;;;;;5081737;28;45311;-78
2022/10/02 05:38:26;;;;;;;;;0.00;0.00;;;;;;;;5081933;28;45169;-78
2022/10/02 05:40:59;;;;;;;;;0.00;0.00;;;;;;;;5078698;28;46289;-77
2022/10/02 05:43:27;;;;;;;;;0.00;0.00;;;;;;;;5077760;28;45290;-77
2022/10/02 05:45:54;;;;;;;;;0.00;0.00;;;;;;;;5061343;28;45285;-78
2022/10/02 05:48:25;;;;;;;;;0.00;0.00;;;;;;;;5079321;28;45487;-77
2022/10/02 05:51:07;;;;;;;;;0.00;0.00;;;;;;;;5059977;28;46315;-78
2022/10/02 05:53:35;;;;;;;;;0.75;0.75;;;;;;;;5059793;28;45308;-78
2022/10/02 05:56:11;;;;;;;;;0.00;0.00;;;;;;;;5058748;28;45336;-77
2022/10/02 05:58:50;;;;;;;;;1.00;1.00;;;;;;;;5077744;28;45457;-77
2022/10/02 06:01:24;;;;;;;;;0.50;0.50;;;;;;;;5077196;28;46297;-78
2022/10/02 06:03:59;;;;;;;;;0.00;0.00;;;;;;;;5077700;28;45433;-77
2022/10/02 06:06:24;;;;;;;;;0.00;0.00;;;;;;;;5078964;28;45378;-77
2022/10/02 06:08:57;;;;;;;;;0.00;0.00;;;;;;;;5060505;28;45246;-77
2022/10/02 06:11:29;;;;;;;;;0.00;0.00;;;;;;;;5080642;28;45271;-79
2022/10/02 06:14:05;;;;;;;;;0.00;0.00;;;;;;;;5079868;28;45173;-78
2022/10/02 06:16:33;;;;;;;;;0.00;0.00;;;;;;;;5079395;28;45321;-77
2022/10/02 06:19:03;;;;;;;;;0.00;0.00;;;;;;;;5080602;28;45334;-78
2022/10/02 06:21:50;;;;;;;;;1.75;1.75;;;;;;;;5079497;28;45263;-80
2022/10/02 06:24:19;;;;;;;;;0.00;0.00;;;;;;;;5079705;28;45299;-78
2022/10/02 06:27:07;;;;;;;;;0.00;0.00;;;;;;;;5079078;28;45425;-79
2022/10/02 06:29:40;;;;;;;;;0.00;0.00;;;;;;;;5051902;28;45423;-79
2022/10/02 06:32:24;;;;;;;;;0.00;0.00;;;;;;;;5076733;28;46729;-77
2022/10/02 06:34:49;;;;;;;;;0.00;0.00;;;;;;;;5076762;28;45406;-78
2022/10/02 06:37:20;;;;;;;;;0.00;0.00;;;;;;;;5076715;28;45415;-78
2022/10/02 06:40:00;;;;;;;;;1.00;1.00;;;;;;;;5078754;28;45145;-78
2022/10/02 06:42:39;;;;;;;;;1.00;1.00;;;;;;;;5078527;27;46697;-79
2022/10/02 06:45:23;;;;;;;;;1.00;1.00;;;;;;;;5077331;28;45307;-76
2022/10/02 06:48:00;;;;;;;;;1.00;1.00;;;;;;;;5078318;28;45231;-79
2022/10/02 06:50:31;;;;;;;;;0.00;0.00;;;;;;;;5079581;28;45140;-78
2022/10/02 06:52:56;;;;;;;;;1.00;1.00;;;;;;;;5061239;27;46797;-78
2022/10/02 06:55:30;;;;;;;;;0.75;0.75;;;;;;;;5060521;28;45443;-81
2022/10/02 06:58:08;;;;;;;;;0.75;0.75;;;;;;;;5079426;28;45387;-80
2022/10/02 07:00:38;;;;;;;;;0.25;0.25;;;;;;;;5078979;28;45305;-77
2022/10/02 07:03:17;;;;;;;;;1.00;1.00;;;;;;;;5084281;27;45395;-78
2022/10/02 07:05:52;;;;;;;;;1.00;1.00;;;;;;;;5070297;28;45346;-78
2022/10/02 07:08:17;;;;;;;;;0.00;0.00;;;;;;;;5087652;28;45319;-78
2022/10/02 07:10:45;;;;;;;;;0.00;0.00;;;;;;;;5080943;27;45446;-81
2022/10/02 07:13:29;;;;;;;;;0.00;0.00;;;;;;;;5077621;28;46141;-79
2022/10/02 07:16:12;;;;;;;;;0.00;0.00;;;;;;;;5077774;28;45249;-80
2022/10/02 07:18:57;;;;;;;;;0.75;0.75;;;;;;;;5077040;28;45258;-78
2022/10/02 07:21:31;;;;;;;;;0.00;0.00;;;;;;;;5076227;27;45636;-79
2022/10/02 07:24:24;;;;;;;;;0.00;0.00;;;;;;;;5077149;28;45443;-79
2022/10/02 07:27:13;;;;;;;;;0.00;0.00;;;;;;;;5073430;28;45402;-79
2022/10/02 07:29:47;;;;;;;;;0.00;0.00;;;;;;;;5075974;28;45337;-79
2022/10/02 07:32:23;;;;;;;;;0.00;0.00;;;;;;;;5075957;28;45532;-78
2022/10/02 07:35:16;;;;;;;;;1.00;1.00;;;;;;;;5075933;27;45379;-79
2022/10/02 07:37:44;;;;;;;;;0.00;0.00;;;;;;;;5075860;28;45441;-79
2022/10/02 07:40:12;;;;;;;;;1.00;1.00;;;;;;;;5076036;28;45289;-78
2022/10/02 07:42:40;;;;;;;;;0.50;0.50;;;;;;;;5077559;28;45204;-79
2022/10/02 07:45:26;;;;;;;;;1.00;1.00;;;;;;;;5076864;28;45518;-77
2022/10/02 07:48:00;;;;;;;;;2.00;2.00;;;;;;;;5057622;28;45311;-78
2022/10/02 07:50:30;;;;;;;;;0.00;0.00;;;;;;;;5077344;28;45397;-78
2022/10/02 07:53:01;;;;;;;;;1.00;1.00;;;;;;;;5076449;28;45221;-77
2022/10/02 07:55:27;;;;;;;;;1.00;1.00;;;;;;;;5076912;28;45379;-79
2022/10/02 07:58:01;;;;;;;;;0.25;0.25;;;;;;;;5080438;28;45272;-77
2022/10/02 08:00:28;;;;;;;;;1.00;1.00;;;;;;;;5082004;28;45271;-77
2022/10/02 08:02:58;;;;;;;;;2.00;2.00;;;;;;;;5059268;28;45620;-78
2022/10/02 08:05:25;;;;;;;;;1.00;1.00;;;;;;;;5076690;28;46223;-78
2022/10/02 08:07:53;;;;;;;;;1.00;1.00;;;;;;;;5078682;28;45270;-77
2022/10/02 08:10:21;;;;;;;;;3.75;3.75;;;;;;;;5080770;28;45170;-79
2022/10/02 08:13:03;;;;;;;;;0.75;0.75;;;;;;;;5077895;28;45142;-79
2022/10/02 08:15:32;;;;;;;;;0.25;0.25;;;;;;;;5075987;28;45462;-78
2022/10/02 08:18:00;;;;;;;;;2.00;2.00;;;;;;;;5076742;28;45449;-80
2022/10/02 08:20:32;;;;;;;;;2.00;2.00;;;;;;;;5057845;28;45398;-78
2022/10/02 08:23:02;;;;;;;;;0.50;0.50;;;;;;;;5058332;28;45521;-79
2022/10/02 08:25:29;;;;;;;;;0.00;0.00;;;;;;;;5079532;28;47086;-79
2022/10/02 08:27:58;;;;;;;;;0.25;0.25;;;;;;;;5078255;28;45359;-78
2022/10/02 08:30:24;;;;;;;;;1.25;0.75;;;;;;;;5057663;28;45411;-77
2022/10/02 08:32:49;;;;;;;;;1.00;1.00;;;;;;;;5076149;28;45392;-78
2022/10/02 08:35:15;;;;;;;;;1.00;1.00;;;;;;;;5075599;28;45477;-78
2022/10/02 08:37:48;;;;;;;;;2.25;2.25;;;;;;;;5057245;28;45951;-80
2022/10/02 08:40:21;;;;;;;;;0.25;0.25;;;;;;;;5059713;28;45381;-80
2022/10/02 08:42:53;;;;;;;;;1.25;1.25;;;;;;;;5059132;28;45486;-80
2022/10/02 08:45:40;;;;;;;;;0.50;0.50;;;;;;;;5078300;28;45339;-79
2022/10/02 08:48:06;;;;;;;;;1.00;1.00;;;;;;;;5081104;28;45219;-80
2022/10/02 08:50:34;;;;;;;;;0.75;0.75;;;;;;;;5084594;28;45273;-81
2022/10/02 08:53:19;;;;;;;;;3.00;3.00;;;;;;;;5082308;28;45391;-81
2022/10/02 08:55:52;;;;;;;;;5.25;5.25;;;;;;;;5066816;28;47688;-79
2022/10/02 08:58:35;;;;;;;;;2.00;2.00;;;;;;;;5088110;27;45223;-81
2022/10/02 09:01:19;;;;;;;;;3.00;3.00;;;;;;;;5066546;28;45280;-79
2022/10/02 09:04:00;;;;;;;;;1.75;1.75;;;;;;;;5081667;27;45235;-82
2022/10/02 09:06:26;;;;;;;;;2.50;2.50;;;;;;;;5080165;28;45513;-80
2022/10/02 09:09:09;;;;;;;;;2.00;2.00;;;;;;;;5080932;28;45255;-80
2022/10/02 09:11:43;;;;;;;;;2.00;1.75;;;;;;;;5083407;28;45295;-77
2022/10/02 09:14:15;;;;;;;;;2.50;2.50;;;;;;;;5080587;28;45390;-80
2022/10/02 09:16:51;;;;;;;;;3.00;3.00;;;;;;;;5083399;28;46452;-79
2022/10/02 09:19:18;;;;;;;;;10.00;10.00;;;;;;;;5081693;28;45426;-80
2022/10/02 09:21:50;;;;;;;;;5.25;4.00;;;;;;;;5078803;28;45406;-81
2022/10/02 09:24:34;;;;;;;;;4.00;4.00;;;;;;;;5060930;28;45492;-81
2022/10/02 09:27:15;;;;;;;;;1.00;1.00;;;;;;;;5078850;28;46493;-78
2022/10/02 09:29:51;;;;;;;;;2.00;2.00;;;;;;;;5079422;28;45360;-80
2022/10/02 09:32:16;;;;;;;;;2.50;2.50;;;;;;;;5080576;28;45368;-79
2022/10/02 09:34:46;;;;;;;;;2.00;2.00;;;;;;;;5080038;28;45484;-79
2022/10/02 09:37:34;;;;;;;;;1.00;1.00;;;;;;;;5080089;28;45546;-79
2022/10/02 09:39:59;;;;;;;;;1.25;1.25;;;;;;;;5080287;28;45333;-81
2022/10/02 09:42:27;;;;;;;;;2.00;2.00;;;;;;;;5061775;28;45484;-79
2022/10/02 09:44:58;;;;;;;;;1.00;1.00;;;;;;;;5079805;28;45384;-77
2022/10/02 09:47:52;;;;;;;;;0.75;0.75;;;;;;;;5078890;28;46408;-78
2022/10/02 09:50:26;;;;;;;;;0.50;0.50;;;;;;;;5078869;28;45212;-80
2022/10/02 09:52:51;;;;;;;;;3.00;3.00;;;;;;;;5060523;28;45836;-80
2022/10/02 09:55:41;;;;;;;;;1.00;1.00;;;;;;;;5078567;28;45323;-79
2022/10/02 09:58:19;;;;;;;;;3.00;3.00;;;;;;;;5060625;28;47993;-80
2022/10/02 10:00:45;;;;;;;;;2.00;2.00;;;;;;;;5079017;28;45371;-81
2022/10/02 10:03:21;;;;;;;;;2.00;2.00;;;;;;;;5079171;28;45320;-79
2022/10/02 10:05:47;;;;;;;;;1.00;1.00;;;;;;;;5078884;27;45289;-79
2022/10/02 10:08:16;;;;;;;;;2.75;2.75;;;;;;;;5078556;28;46544;-79
2022/10/02 10:11:00;;;;;;;;;1.50;1.50;;;;;;;;5078806;28;45390;-79
2022/10/02 10:13:25;;;;;;;;;0.00;0.00;;;;;;;;5078730;28;45378;-78
2022/10/02 10:16:10;;;;;;;;;1.00;1.00;;;;;;;;5078370;28;45574;-78
2022/10/02 10:18:47;;;;;;;;;3.00;3.00;;;;;;;;5078370;28;46066;-79
2022/10/02 10:21:31;;;;;;;;;3.50;3.50;;;;;;;;5060895;28;45503;-78
2022/10/02 10:24:14;;;;;;;;;2.25;2.25;;;;;;;;5078748;28;45372;-79
2022/10/02 10:26:58;;;;;;;;;2.50;2.50;;;;;;;;5088277;28;45653;-78
2022/10/02 10:29:41;;;;;;;;;1.50;1.50;;;;;;;;5083530;28;45891;-78
2022/10/02 10:32:18;;;;;;;;;3.00;3.00;;;;;;;;5078404;28;45269;-80
2022/10/02 10:34:44;;;;;;;;;2.00;2.00;;;;;;;;5078436;28;45365;-80
2022/10/02 10:40:25;;;;;;;;;0.25;0.25;;;;;;;;5077106;28;45756;-78
2022/10/02 10:42:50;;;;;;;;;3.50;3.50;;;;;;;;5079611;28;45317;-77
2022/10/02 10:45:27;;;;;;;;;3.25;3.25;;;;;;;;5059272;28;45290;-77
2022/10/02 10:47:58;;;;;;;;;3.50;3.50;;;;;;;;5077494;28;45442;-79
2022/10/02 10:50:38;;;;;;;;;1.25;1.25;;;;;;;;5077323;28;46411;-79
2022/10/02 10:53:07;;;;;;;;;3.00;3.00;;;;;;;;5077079;28;45285;-77
2022/10/02 10:55:47;;;;;;;;;3.00;3.00;;;;;;;;5077570;28;45222;-79
2022/10/02 10:58:20;;;;;;;;;0.00;0.00;;;;;;;;5059729;28;45410;-78
2022/10/02 11:00:54;;;;;;;;;1.00;1.00;;;;;;;;5077325;28;46693;-80
2022/10/02 11:03:31;;;;;;;;;1.00;1.00;;;;;;;;5077428;28;45339;-80
2022/10/02 11:06:06;;;;;;;;;1.00;1.00;;;;;;;;5058804;28;45315;-80
2022/10/02 11:08:31;;;;;;;;;1.00;1.00;;;;;;;;5077275;28;45484;-79
2022/10/02 11:10:56;;;;;;;;;2.00;2.00;;;;;;;;5077748;28;46184;-83
2022/10/02 11:13:32;;;;;;;;;2.00;2.00;;;;;;;;5079157;28;45385;-80
2022/10/02 11:16:12;;;;;;;;;1.50;1.50;;;;;;;;5079716;28;45341;-81
2022/10/02 11:18:43;;;;;;;;;5.75;5.75;;;;;;;;5082116;28;45146;-80
2022/10/02 11:21:24;;;;;;;;;4.75;4.75;;;;;;;;5080042;28;46480;-80
2022/10/02 11:24:09;;;;;;;;;6.75;6.75;;;;;;;;5080580;28;45390;-80
2022/10/02 11:26:34;;;;;;;;;2.00;2.00;;;;;;;;5063351;28;45414;-79
2022/10/02 11:29:18;;;;;;;;;3.00;3.00;;;;;;;;5081317;27;45425;-80
2022/10/02 11:31:46;;;;;;;;;8.25;8.25;;;;;;;;5077858;28;45493;-77
2022/10/02 11:34:32;;;;;;;;;1.00;1.00;;;;;;;;5060274;28;45435;-80
2022/10/02 11:37:15;;;;;;;;;4.00;4.00;;;;;;;;5081179;28;45442;-80
2022/10/02 11:39:41;;;;;;;;;7.00;7.00;;;;;;;;5080680;28;45474;-82
2022/10/02 11:42:10;;;;;;;;;5.00;5.00;;;;;;;;5079208;28;46621;-80
2022/10/02 11:44:44;;;;;;;;;7.00;6.25;;;;;;;;5079698;28;45220;-79
2022/10/02 11:47:27;;;;;;;;;4.00;4.00;;;;;;;;5062835;28;45351;-82
2022/10/02 11:49:59;;;;;;;;;2.50;2.50;;;;;;;;5077822;28;45339;-80
2022/10/02 11:52:30;;;;;;;;;5.00;5.00;;;;;;;;5078682;28;45251;-79
2022/10/02 11:54:59;;;;;;;;;4.50;4.50;;;;;;;;5077570;28;45178;-79
2022/10/02 11:57:44;;;;;;;;;3.00;3.00;;;;;;;;5061955;28;45322;-79
2022/10/02 12:00:30;;;;;;;;;3.25;3.25;;;;;;;;5062951;28;45338;-81
2022/10/02 12:03:28;;;;;;;;;3.00;3.00;;;;;;;;5081573;28;45660;-81
2022/10/02 12:06:12;;;;;;;;;3.00;3.00;;;;;;;;5048741;28;45178;-78
2022/10/02 12:08:40;;;;;;;;;4.25;4.25;;;;;;;;5083889;28;45396;-80
2022/10/02 12:11:11;;;;;;;;;2.25;2.25;;;;;;;;5082371;28;45322;-80
2022/10/02 12:13:56;;;;;;;;;4.25;4.25;;;;;;;;5078853;28;45402;-81
2022/10/02 12:16:28;;;;;;;;;15.25;15.25;;;;;;;;5080948;28;45145;-79
2022/10/02 12:19:10;;;;;;;;;11.00;11.00;;;;;;;;5083576;28;45260;-79
2022/10/02 12:27:27;;;;;;;;;11.00;11.00;;;;;;;;5082955;28;45212;-80
2022/10/02 12:29:59;;;;;;;;;5.00;5.00;;;;;;;;5082701;28;45208;-79
2022/10/02 12:32:27;;;;;;;;;6.50;6.50;;;;;;;;5083017;28;45243;-79
2022/10/02 12:35:04;;;;;;;;;3.50;3.50;;;;;;;;5081908;28;46366;-79
2022/10/02 12:37:30;;;;;;;;;4.00;4.00;;;;;;;;5080898;28;45310;-80
2022/10/02 12:40:11;;;;;;;;;7.50;7.50;;;;;;;;5084140;28;45355;-78
2022/10/02 12:42:39;;;;;;;;;4.00;4.00;;;;;;;;5070283;28;45371;-80
2022/10/02 12:45:33;;;;;;;;;5.75;5.75;;;;;;;;5088461;28;45670;-82
2022/10/02 12:47:59;;;;;;;;;4.00;4.00;;;;;;;;5091563;28;45339;-79
2022/10/02 12:50:24;;;;;;;;;3.00;3.00;;;;;;;;5092052;28;45373;-79
2022/10/02 12:53:05;;;;;;;;;5.75;5.75;;;;;;;;5087477;28;45312;-80
2022/10/02 12:55:33;;;;;;;;;5.50;5.50;;;;;;;;5063260;28;47847;-80
2022/10/02 12:58:13;;;;;;;;;4.25;4.25;;;;;;;;5080464;27;45366;-79
2022/10/02 13:00:44;;;;;;;;;9.50;9.50;;;;;;;;5080820;28;45362;-80
2022/10/02 13:03:28;;;;;;;;;1.75;1.75;;;;;;;;5082188;28;45244;-82
2022/10/02 13:06:19;;;;;;;;;3.00;3.00;;;;;;;;5084075;28;45446;-81
2022/10/02 13:08:59;;;;;;;;;1.75;1.75;;;;;;;;5083238;27;45258;-80
2022/10/02 13:11:25;;;;;;;;;1.25;1.25;;;;;;;;5066142;27;45275;-80
2022/10/02 13:13:53;;;;;;;;;1.00;1.00;;;;;;;;5069376;28;45398;-80
2022/10/02 13:16:22;;;;;;;;;1.75;1.75;;;;;;;;5088334;28;46269;-80
2022/10/02 13:19:06;;;;;;;;;2.00;2.00;;;;;;;;5069615;28;45335;-80
2022/10/02 13:21:45;;;;;;;;;2.00;2.00;;;;;;;;5063841;28;45301;-80
2022/10/02 13:24:29;;;;;;;;;2.50;2.50;;;;;;;;5082216;28;45461;-79
2022/10/02 13:27:15;;;;;;;;;3.00;3.00;;;;;;;;5080516;28;46240;-82
2022/10/02 13:29:57;;;;;;;;;2.50;2.50;;;;;;;;5080498;28;45402;-80
2022/10/02 13:32:41;;;;;;;;;1.25;1.25;;;;;;;;5084232;27;45237;-80
2022/10/02 13:35:09;;;;;;;;;0.00;0.00;;;;;;;;5083705;28;45656;-81
2022/10/02 13:37:37;;;;;;;;;0.00;0.00;;;;;;;;5084879;27;45365;-78
2022/10/02 13:40:20;;;;;;;;;2.25;2.25;;;;;;;;5083150;28;45402;-80
2022/10/02 13:42:45;;;;;;;;;3.00;2.00;;;;;;;;5083856;28;45425;-80
2022/10/02 13:45:21;;;;;;;;;0.00;0.00;;;;;;;;5085989;28;45431;-79
2022/10/02 13:47:52;;;;;;;;;3.00;3.00;;;;;;;;5086632;28;45181;-80
2022/10/02 13:50:21;;;;;;;;;1.00;1.00;;;;;;;;5083165;28;45200;-80
2022/10/02 13:53:04;;;;;;;;;0.00;0.00;;;;;;;;5081814;28;45331;-79
2022/10/02 13:55:37;;;;;;;;;4.50;3.50;;;;;;;;5082310;28;45460;-81
2022/10/02 13:58:29;;;;;;;;;0.67;0.67;;;;;;;;5081174;28;45307;-83
2022/10/02 14:01:15;;;;;;;;;3.75;1.00;;;;;;;;5057419;28;45320;-80
2022/10/02 14:03:40;;;;;;;;;1.33;1.33;;;;;;;;5061080;27;45423;-81
2022/10/02 14:06:12;;;;;;;;;0.75;0.75;;;;;;;;5080942;28;45590;-80
2022/10/02 14:08:37;;;;;;;;;0.00;0.00;;;;;;;;5061477;28;47179;-81
2022/10/02 14:11:22;;;;;;;;;0.00;0.00;;;;;;;;5079549;28;45442;-78
2022/10/02 14:13:50;;;;;;;;;1.75;1.75;;;;;;;;5081260;28;45388;-80
2022/10/02 14:16:31;;;;;;;;;0.25;0.25;;;;;;;;5081022;28;45340;-81
2022/10/02 14:19:16;;;;;;;;;1.00;1.00;;;;;;;;5081717;28;46195;-82
2022/10/02 14:21:49;;;;;;;;;0.00;0.00;;;;;;;;5080964;28;45471;-82
2022/10/02 14:24:58;;;;;;;;;1.75;1.75;;;;;;;;5082822;28;45455;-85
2022/10/02 14:27:15;;;;;;;;;1.75;1.75;;;;;;;;5081175;28;45354;-84
2022/10/02 14:30:01;;;;;;;;;2.25;2.25;;;;;;;;5081229;28;45283;-83
2022/10/02 14:32:30;;;;;;;;;2.00;2.00;;;;;;;;5082532;27;45190;-79
2022/10/02 14:35:07;;;;;;;;;10.75;10.00;;;;;;;;5085868;28;45410;-80
2022/10/02 14:37:41;;;;;;;;;1.00;1.00;;;;;;;;5083073;28;45781;-81
2022/10/02 14:40:17;;;;;;;;;3.00;3.00;;;;;;;;5082339;28;45665;-79
2022/10/02 14:42:43;;;;;;;;;5.75;5.75;;;;;;;;5078845;28;45418;-79
2022/10/02 14:45:20;;;;;;;;;2.25;2.25;;;;;;;;5078750;28;45290;-78
2022/10/02 14:47:54;;;;;;;;;2.75;2.75;;;;;;;;5079928;28;45341;-80
2022/10/02 14:50:19;;;;;;;;;2.00;2.00;;;;;;;;5082107;28;45453;-80
2022/10/02 14:53:04;;;;;;;;;1.00;1.00;;;;;;;;5081145;28;45404;-83
2022/10/02 14:55:47;;;;;;;;;1.00;1.00;;;;;;;;5085008;28;45342;-80
2022/10/02 14:58:31;;;;;;;;;2.00;2.00;;;;;;;;5085720;28;46172;-81
2022/10/02 15:01:12;;;;;;;;;0.75;0.75;;;;;;;;5080539;28;46343;-80
2022/10/02 15:03:53;;;;;;;;;2.00;2.00;;;;;;;;5063710;28;45359;-80
2022/10/02 15:06:24;;;;;;;;;2.00;2.00;;;;;;;;5080069;28;45314;-79
2022/10/02 15:08:58;;;;;;;;;3.25;3.25;;;;;;;;5060949;28;45625;-79
2022/10/02 15:11:43;;;;;;;;;1.75;1.75;;;;;;;;5082759;28;45468;-80
2022/10/02 15:14:18;;;;;;;;;3.00;3.00;;;;;;;;5080455;28;45371;-80
2022/10/02 15:19:44;;;;;;;;;2.00;2.00;;;;;;;;5079553;28;45299;-81
2022/10/02 15:22:23;;;;;;;;;2.00;2.00;;;;;;;;5079024;28;47755;-83
2022/10/02 15:24:58;;;;;;;;;3.00;3.00;;;;;;;;5079422;28;45402;-81
2022/10/02 15:27:25;;;;;;;;;2.00;2.00;;;;;;;;5084007;27;45393;-80
2022/10/02 15:30:09;;;;;;;;;3.00;3.00;;;;;;;;5080166;28;45358;-81
2022/10/02 15:32:42;;;;;;;;;2.00;2.00;;;;;;;;5078271;28;46359;-82
2022/10/02 15:35:20;;;;;;;;;4.00;4.00;;;;;;;;5077861;28;45395;-82